Airport View

Enter AWOS ICAO identifier for current METAR.

ex. KFNL

KJHN 211950Z AUTO 09010G15KT 10SM SCT043 31/21 A3007 RMK AO2 T03050207

22 Jul 2019 19:20

Frequency: 124.175

Phone: 620-492-2100

Other Area AWOS: KULS - K3K3 - KHQG - KEHA

TAF KGCK 221720Z 2218/2318 04011KT P6SM FEW030 FM230100 VRB05KT P6SM SKC